createdAt,value
2018-07-05T00:03:20.452Z,56.11
2018-07-05T00:08:34.924Z,57.11
2018-07-05T00:13:49.489Z,58.24
2018-07-05T00:19:03.889Z,57.97
2018-07-05T00:24:18.219Z,58.08
2018-07-05T00:29:32.705Z,58.09
2018-07-05T00:34:47.090Z,58.74
2018-07-05T00:40:01.451Z,58.38
2018-07-05T00:45:16.920Z,58.17
2018-07-05T00:50:31.279Z,58.50
2018-07-05T00:55:45.787Z,58.55
2018-07-05T01:01:00.201Z,59.31
2018-07-05T01:06:14.683Z,60.85
2018-07-05T01:11:29.035Z,60.39
2018-07-05T01:16:43.488Z,59.45
2018-07-05T01:21:58.040Z,60.06
2018-07-05T01:27:12.382Z,60.26
2018-07-05T01:32:26.828Z,61.61
2018-07-05T01:37:41.156Z,60.80
2018-07-05T01:42:55.601Z,60.99
2018-07-05T01:48:10.055Z,61.30
2018-07-05T01:53:24.544Z,61.31
2018-07-05T01:58:39.080Z,61.50
2018-07-05T02:03:53.433Z,61.82
2018-07-05T02:09:07.891Z,61.87
2018-07-05T02:14:22.403Z,62.16
2018-07-05T02:19:36.896Z,62.73
2018-07-05T02:24:51.324Z,62.76
2018-07-05T02:30:05.862Z,63.41
2018-07-05T02:35:20.257Z,63.15
2018-07-05T02:40:34.639Z,62.89
2018-07-05T02:45:49.024Z,63.27
2018-07-05T02:51:03.506Z,63.10
2018-07-05T02:56:18.009Z,63.15
2018-07-05T03:01:32.389Z,62.44
2018-07-05T03:06:46.835Z,61.45
2018-07-05T03:12:01.173Z,60.41
2018-07-05T03:17:15.579Z,59.73
2018-07-05T03:22:29.965Z,59.10
2018-07-05T03:27:45.543Z,59.64
2018-07-05T03:32:59.797Z,57.62
2018-07-05T03:38:14.286Z,58.01
2018-07-05T03:43:28.699Z,55.44
2018-07-05T03:48:43.095Z,56.46
2018-07-05T03:53:57.507Z,56.07
2018-07-05T03:59:11.770Z,56.20
2018-07-05T04:04:26.173Z,57.07
2018-07-05T04:09:40.694Z,57.55
2018-07-05T04:14:55.158Z,57.96
2018-07-05T04:20:09.596Z,57.00
2018-07-05T04:25:23.975Z,57.12
2018-07-05T04:30:38.362Z,56.62
2018-07-05T04:35:52.976Z,55.91
2018-07-05T04:41:07.500Z,54.19
2018-07-05T04:46:21.891Z,51.66
2018-07-05T04:51:36.440Z,48.13
2018-07-05T04:56:50.745Z,45.51
2018-07-05T05:02:05.226Z,41.22
2018-07-05T05:07:19.492Z,34.87
2018-07-05T05:12:33.721Z,32.63
2018-07-05T05:17:48.037Z,38.32
2018-07-05T05:23:02.468Z,43.41
2018-07-05T05:28:16.954Z,33.71
2018-07-05T05:33:31.513Z,29.89
2018-07-05T05:38:45.862Z,26.59
2018-07-05T05:44:00.258Z,27.69
2018-07-05T05:49:14.773Z,24.81
2018-07-05T05:54:29.379Z,21.45
2018-07-05T05:59:43.651Z,22.12
2018-07-05T06:04:57.941Z,23.35
2018-07-05T06:10:12.426Z,20.79
2018-07-05T06:15:26.964Z,22.09
2018-07-05T06:20:42.399Z,21.17
2018-07-05T06:25:56.921Z,21.12
2018-07-05T06:31:11.282Z,18.96
2018-07-05T06:36:25.733Z,19.71
2018-07-05T06:41:40.002Z,21.34
2018-07-05T06:46:54.484Z,17.63
2018-07-05T06:52:09.110Z,17.62
2018-07-05T06:57:23.498Z,17.93
2018-07-05T07:02:37.901Z,18.07
2018-07-05T07:07:52.277Z,16.53
2018-07-05T07:13:06.855Z,17.75
2018-07-05T07:18:21.705Z,17.13
2018-07-05T07:23:36.017Z,19.11
2018-07-05T07:28:50.484Z,17.35
2018-07-05T07:34:04.956Z,18.18
2018-07-05T07:39:19.411Z,24.18
2018-07-05T07:44:21.387Z,26.41
2018-07-05T07:49:23.312Z,24.14
2018-07-05T07:54:25.248Z,21.88
2018-07-05T07:59:27.238Z,24.70
2018-07-05T08:04:29.168Z,26.18
2018-07-05T08:09:31.157Z,23.89
2018-07-05T08:14:33.114Z,25.77
2018-07-05T08:19:35.055Z,25.68
2018-07-05T08:24:37.003Z,25.88
2018-07-05T08:29:39.024Z,24.60
2018-07-05T08:34:40.938Z,23.61
2018-07-05T08:39:42.922Z,22.47
2018-07-05T08:44:44.903Z,22.08
2018-07-05T08:49:46.805Z,19.11
2018-07-05T08:54:48.764Z,18.37
2018-07-05T08:59:50.730Z,19.18
2018-07-05T09:04:52.691Z,21.14
2018-07-05T09:09:54.622Z,20.25
2018-07-05T09:14:56.566Z,17.89
2018-07-05T09:19:58.574Z,17.52
2018-07-05T09:25:00.582Z,20.92
2018-07-05T09:30:02.508Z,19.44
2018-07-05T09:35:04.466Z,18.46
2018-07-05T09:40:06.445Z,18.82
2018-07-05T09:45:08.400Z,17.62
2018-07-05T09:50:10.344Z,20.54
2018-07-05T09:55:12.271Z,23.48
2018-07-05T10:00:14.220Z,20.53
2018-07-05T10:05:16.156Z,18.46
2018-07-05T10:10:18.076Z,16.22
2018-07-05T10:15:20.027Z,18.43
2018-07-05T10:20:22.065Z,17.66
2018-07-05T10:25:24.049Z,18.94
2018-07-05T10:30:38.535Z,18.33
2018-07-05T10:35:40.802Z,19.81
2018-07-05T10:40:55.190Z,20.64
2018-07-05T10:46:09.680Z,21.22
2018-07-05T10:51:24.107Z,20.51
2018-07-05T10:56:38.531Z,19.53
2018-07-05T11:01:52.961Z,19.11
2018-07-05T11:07:07.509Z,20.85
2018-07-05T11:12:22.032Z,20.25
2018-07-05T11:17:36.359Z,20.91
2018-07-05T11:22:50.800Z,21.22
2018-07-05T11:28:05.277Z,23.35
2018-07-05T11:33:19.662Z,20.62
2018-07-05T11:38:34.147Z,20.81
2018-07-05T11:43:48.632Z,21.88
2018-07-05T11:49:03.045Z,21.37
2018-07-05T11:54:17.414Z,21.90
2018-07-05T11:59:31.917Z,21.99
2018-07-05T12:04:46.353Z,21.97
2018-07-05T12:10:00.774Z,21.77
2018-07-05T12:15:15.132Z,24.61
2018-07-05T12:20:29.666Z,23.61
2018-07-05T12:25:44.107Z,22.49
2018-07-05T12:30:58.565Z,22.57
2018-07-05T12:36:12.974Z,22.86
2018-07-05T12:41:27.557Z,23.58
2018-07-05T12:46:42.020Z,22.63
2018-07-05T12:51:57.487Z,22.46
2018-07-05T12:57:11.813Z,23.22
2018-07-05T13:02:26.345Z,21.41
2018-07-05T13:07:40.708Z,22.19
2018-07-05T13:12:55.301Z,22.67
2018-07-05T13:18:09.666Z,23.44
2018-07-05T13:23:24.261Z,22.07
2018-07-05T13:28:38.602Z,22.52
2018-07-05T13:33:52.960Z,23.53
2018-07-05T13:39:07.455Z,24.13
2018-07-05T13:44:21.897Z,24.11
2018-07-05T13:49:36.337Z,22.77
2018-07-05T13:54:50.588Z,23.00
2018-07-05T14:00:05.137Z,22.21
2018-07-05T14:05:19.732Z,23.96
2018-07-05T14:10:34.365Z,25.22
2018-07-05T14:15:49.976Z,23.61
2018-07-05T14:21:04.599Z,25.36
2018-07-05T14:26:19.165Z,24.25
2018-07-05T14:31:33.725Z,25.37
2018-07-05T14:36:47.912Z,25.55
2018-07-05T14:42:02.365Z,25.00
2018-07-05T14:47:16.860Z,25.97
2018-07-05T14:52:33.423Z,25.58
2018-07-05T14:57:48.099Z,25.81
2018-07-05T15:03:02.385Z,25.06
2018-07-05T15:08:16.794Z,26.55
2018-07-05T15:13:31.323Z,26.35
2018-07-05T15:18:46.011Z,25.67
2018-07-05T15:24:00.327Z,26.46
2018-07-05T15:29:14.717Z,25.98
2018-07-05T15:34:29.749Z,26.08
2018-07-05T15:39:43.988Z,27.05
2018-07-05T15:44:58.392Z,26.53
2018-07-05T15:50:12.931Z,26.25
2018-07-05T15:55:27.418Z,26.59
2018-07-05T16:00:41.816Z,26.56
2018-07-05T16:05:56.234Z,26.23
2018-07-05T16:11:10.652Z,25.89
2018-07-05T16:16:25.043Z,26.37
2018-07-05T16:21:39.514Z,26.59
2018-07-05T16:26:53.989Z,27.73
2018-07-05T16:32:08.499Z,27.20
2018-07-05T16:37:22.929Z,27.35
2018-07-05T16:42:37.442Z,26.98
2018-07-05T16:47:51.886Z,27.96
2018-07-05T16:53:06.311Z,27.94
2018-07-05T16:58:20.722Z,27.86
2018-07-05T17:03:35.231Z,27.71
2018-07-05T17:08:49.817Z,28.88
2018-07-05T17:14:04.257Z,28.08
2018-07-05T17:19:18.696Z,29.70
2018-07-05T17:24:33.070Z,30.34
2018-07-05T17:29:47.593Z,28.75
2018-07-05T17:35:01.938Z,28.49
2018-07-05T17:40:16.267Z,29.72
2018-07-05T17:45:30.785Z,29.09
2018-07-05T17:50:45.190Z,27.96
2018-07-05T17:55:59.679Z,29.46
2018-07-05T18:01:14.072Z,28.44
2018-07-05T18:06:28.590Z,29.17
2018-07-05T18:11:42.850Z,28.33
2018-07-05T18:16:57.396Z,29.23
2018-07-05T18:22:11.854Z,29.72
2018-07-05T18:27:26.381Z,29.93
2018-07-05T18:32:40.702Z,31.40
2018-07-05T18:37:55.125Z,30.94
2018-07-05T18:43:09.722Z,31.43
2018-07-05T18:48:23.970Z,32.59
2018-07-05T18:53:38.438Z,33.48
2018-07-05T18:58:53.823Z,33.78
2018-07-05T19:04:08.410Z,32.88
2018-07-05T19:09:22.594Z,34.58
2018-07-05T19:14:36.976Z,34.99
2018-07-05T19:19:51.383Z,34.76
2018-07-05T19:25:05.782Z,36.46
2018-07-05T19:30:20.131Z,37.16
2018-07-05T19:35:34.854Z,37.50
2018-07-05T19:40:49.994Z,38.36
2018-07-05T19:46:05.760Z,38.16
2018-07-05T19:51:20.508Z,39.79
2018-07-05T19:56:37.674Z,39.66
2018-07-05T20:01:52.077Z,39.56
2018-07-05T20:07:06.613Z,39.79
2018-07-05T20:12:21.948Z,40.22
2018-07-05T20:17:38.277Z,40.46
2018-07-05T20:22:53.625Z,41.35
2018-07-05T20:28:08.143Z,41.08
2018-07-05T20:33:22.676Z,42.17
2018-07-05T20:38:37.149Z,41.77
2018-07-05T20:43:51.464Z,43.75
2018-07-05T20:49:06.101Z,43.98
2018-07-05T20:54:20.397Z,44.39
2018-07-05T20:59:34.851Z,43.71
2018-07-05T21:04:49.574Z,45.57
2018-07-05T21:10:04.150Z,45.48
2018-07-05T21:15:18.578Z,45.18
2018-07-05T21:20:33.099Z,46.42
2018-07-05T21:25:47.534Z,46.63
2018-07-05T21:31:02.015Z,47.43
2018-07-05T21:36:16.451Z,47.77
2018-07-05T21:41:30.862Z,48.60
2018-07-05T21:46:45.277Z,48.61
2018-07-05T21:51:59.611Z,49.69
2018-07-05T21:57:14.102Z,50.39
2018-07-05T22:02:28.466Z,51.27
2018-07-05T22:07:42.835Z,51.53
2018-07-05T22:12:57.390Z,53.61
2018-07-05T22:18:11.933Z,54.14
2018-07-05T22:23:26.420Z,54.06
2018-07-05T22:28:40.865Z,54.30
2018-07-05T22:33:55.259Z,54.75
2018-07-05T22:39:09.676Z,55.63
2018-07-05T22:44:24.011Z,56.07
2018-07-05T22:49:38.327Z,55.90
2018-07-05T22:54:52.771Z,56.49
2018-07-05T23:00:07.231Z,56.45
2018-07-05T23:05:21.586Z,57.23
2018-07-05T23:10:35.981Z,56.83
2018-07-05T23:15:50.402Z,56.87
2018-07-05T23:21:04.702Z,57.87
2018-07-05T23:26:19.126Z,58.94
2018-07-05T23:31:33.535Z,58.34
2018-07-05T23:36:48.140Z,57.87
2018-07-05T23:42:02.433Z,59.29
2018-07-05T23:47:16.831Z,60.16
2018-07-05T23:52:31.128Z,59.75
2018-07-05T23:57:45.600Z,61.49
